Time;durP1;ratioP1;P1;durP2;ratioP2;P2;SDS_P1;SDS_P2;PMS_P1;PMS_P2;Temp;Humidity;BMP_temperature;BMP_pressure;BME280_temperature;BME280_humidity;BME280_pressure;Samples;Min_cycle;Max_cycle;Signal;HPM_P1;HPM_P2
2023/11/29 00:00:34;;;;;;;15.75;8.27;;;;;;;;;;4925297;29;20040;-57
2023/11/29 00:03:00;;;;;;;15.63;7.72;;;;;;;;;;4931776;29;20131;-56
2023/11/29 00:05:27;;;;;;;13.57;7.80;;;;;;;;;;4933502;29;20056;-56
2023/11/29 00:07:53;;;;;;;16.80;8.30;;;;;;;;;;4933517;29;20419;-55
2023/11/29 00:10:19;;;;;;;17.33;8.77;;;;;;;;;;4931530;29;20039;-55
2023/11/29 00:12:45;;;;;;;16.67;8.38;;;;;;;;;;4929584;29;20499;-56
2023/11/29 00:15:11;;;;;;;20.95;9.07;;;;;;;;;;4932835;29;20031;-59
2023/11/29 00:17:38;;;;;;;16.73;8.73;;;;;;;;;;4933639;29;20420;-54
2023/11/29 00:20:04;;;;;;;19.33;9.77;;;;;;;;;;4933829;29;20031;-56
2023/11/29 00:22:30;;;;;;;18.30;8.93;;;;;;;;;;4932495;29;20035;-56
2023/11/29 00:24:56;;;;;;;14.55;8.23;;;;;;;;;;4933944;29;20032;-56
2023/11/29 00:27:22;;;;;;;18.40;8.93;;;;;;;;;;4933375;29;20042;-56
2023/11/29 00:29:49;;;;;;;16.20;8.43;;;;;;;;;;4933522;29;20039;-56
2023/11/29 00:32:15;;;;;;;17.60;7.70;;;;;;;;;;4930509;29;20044;-55
2023/11/29 00:34:41;;;;;;;16.45;8.30;;;;;;;;;;4930788;29;20039;-55
2023/11/29 00:37:07;;;;;;;15.32;8.48;;;;;;;;;;4925561;29;20407;-55
2023/11/29 00:39:33;;;;;;;17.30;8.00;;;;;;;;;;4933454;29;20608;-55
2023/11/29 00:42:00;;;;;;;17.00;8.43;;;;;;;;;;4931937;29;20055;-55
2023/11/29 00:44:26;;;;;;;17.98;8.75;;;;;;;;;;4932290;29;20046;-57
2023/11/29 00:46:52;;;;;;;19.25;9.57;;;;;;;;;;4931496;29;20038;-56
2023/11/29 00:49:18;;;;;;;19.05;9.45;;;;;;;;;;4932217;29;20039;-55
2023/11/29 00:51:44;;;;;;;20.08;9.63;;;;;;;;;;4931900;29;20667;-55
2023/11/29 00:54:11;;;;;;;18.63;9.20;;;;;;;;;;4932755;29;20545;-53
2023/11/29 00:56:38;;;;;;;17.67;8.93;;;;;;;;;;4926955;29;20038;-54
2023/11/29 00:59:04;;;;;;;19.50;9.95;;;;;;;;;;4932324;29;20055;-56
2023/11/29 01:01:31;;;;;;;20.25;10.38;;;;;;;;;;4933045;29;20407;-58
2023/11/29 01:03:59;;;;;;;19.60;9.15;;;;;;;;;;4932170;29;20047;-56
2023/11/29 01:06:26;;;;;;;21.10;9.60;;;;;;;;;;4933476;29;20059;-55
2023/11/29 01:08:53;;;;;;;18.30;9.05;;;;;;;;;;4927718;29;20067;-54
2023/11/29 01:11:20;;;;;;;26.23;10.10;;;;;;;;;;4930079;29;20059;-56
2023/11/29 01:13:46;;;;;;;19.98;9.35;;;;;;;;;;4933441;29;20039;-57
2023/11/29 01:16:12;;;;;;;19.55;9.35;;;;;;;;;;4932328;29;20431;-56
2023/11/29 01:18:42;;;;;;;21.58;10.07;;;;;;;;;;4931638;29;20059;-55
2023/11/29 01:21:12;;;;;;;18.77;8.95;;;;;;;;;;4932531;29;20048;-56
2023/11/29 01:23:38;;;;;;;;;;;;;;;;;;4934165;29;20044;-56
2023/11/29 01:26:05;;;;;;;20.52;9.25;;;;;;;;;;4930318;29;19915;-55
2023/11/29 01:28:31;;;;;;;21.48;9.18;;;;;;;;;;4930992;29;20040;-56
2023/11/29 01:30:58;;;;;;;20.88;9.57;;;;;;;;;;4931347;29;20040;-56
2023/11/29 01:33:24;;;;;;;19.70;8.65;;;;;;;;;;4932970;29;20038;-55
2023/11/29 01:35:50;;;;;;;20.73;9.27;;;;;;;;;;4929928;29;20419;-56
2023/11/29 01:38:16;;;;;;;17.77;8.30;;;;;;;;;;4931596;29;20079;-55
2023/11/29 01:40:43;;;;;;;18.73;8.85;;;;;;;;;;4931502;29;20051;-54
2023/11/29 01:43:09;;;;;;;20.77;8.52;;;;;;;;;;4932619;29;20051;-54
2023/11/29 01:45:35;;;;;;;19.27;8.27;;;;;;;;;;4931492;29;20507;-56
2023/11/29 01:48:02;;;;;;;16.70;8.05;;;;;;;;;;4926391;29;20376;-55
2023/11/29 01:50:35;;;;;;;18.55;8.38;;;;;;;;;;4931415;29;20066;-56
2023/11/29 01:53:02;;;;;;;17.60;7.70;;;;;;;;;;4932376;29;20364;-56
2023/11/29 01:55:28;;;;;;;14.68;7.22;;;;;;;;;;4931409;29;20503;-56
2023/11/29 01:57:57;;;;;;;18.70;8.07;;;;;;;;;;4931051;29;20036;-56
2023/11/29 02:00:23;;;;;;;16.75;8.45;;;;;;;;;;4928344;29;20399;-55
2023/11/29 02:02:49;;;;;;;17.27;7.72;;;;;;;;;;4932455;29;20051;-56
2023/11/29 02:05:16;;;;;;;17.15;7.95;;;;;;;;;;4931584;29;20066;-56
2023/11/29 02:07:42;;;;;;;16.50;7.72;;;;;;;;;;4928496;29;20153;-56
2023/11/29 02:10:09;;;;;;;15.10;7.00;;;;;;;;;;4930643;29;20051;-56
2023/11/29 02:12:35;;;;;;;16.90;7.80;;;;;;;;;;4931353;29;20035;-55
2023/11/29 02:15:03;;;;;;;20.63;7.85;;;;;;;;;;4930159;29;20059;-53
2023/11/29 02:17:30;;;;;;;18.05;6.93;;;;;;;;;;4930509;29;21793;-56
2023/11/29 02:19:57;;;;;;;17.25;7.50;;;;;;;;;;4931279;29;20467;-57
2023/11/29 02:22:27;;;;;;;16.58;7.93;;;;;;;;;;4930341;29;20071;-56
2023/11/29 02:24:53;;;;;;;18.85;8.32;;;;;;;;;;4931284;29;20070;-55
2023/11/29 02:27:20;;;;;;;15.73;7.15;;;;;;;;;;4930755;29;20043;-55
2023/11/29 02:29:46;;;;;;;18.83;7.75;;;;;;;;;;4931379;29;20048;-56
2023/11/29 02:32:12;;;;;;;17.73;7.35;;;;;;;;;;4930032;29;20043;-56
2023/11/29 02:34:39;;;;;;;17.17;7.40;;;;;;;;;;4931532;29;20047;-56
2023/11/29 02:37:05;;;;;;;18.60;7.68;;;;;;;;;;4929034;29;20050;-56
2023/11/29 02:39:31;;;;;;;18.42;7.82;;;;;;;;;;4932484;29;20388;-55
2023/11/29 02:41:57;;;;;;;17.30;7.82;;;;;;;;;;4930375;29;20043;-57
2023/11/29 02:44:24;;;;;;;18.60;7.78;;;;;;;;;;4932115;29;20055;-57
2023/11/29 02:46:50;;;;;;;15.75;7.05;;;;;;;;;;4925293;29;20040;-54
2023/11/29 02:49:16;;;;;;;20.05;8.15;;;;;;;;;;4930908;29;20754;-54
2023/11/29 02:51:43;;;;;;;16.95;7.15;;;;;;;;;;4914170;29;20052;-54
2023/11/29 02:54:09;;;;;;;21.33;8.32;;;;;;;;;;4930602;29;20043;-55
2023/11/29 02:56:35;;;;;;;19.88;8.18;;;;;;;;;;4931855;29;20055;-55
2023/11/29 02:59:01;;;;;;;18.13;8.20;;;;;;;;;;4935108;29;20054;-56
2023/11/29 03:01:27;;;;;;;21.58;8.38;;;;;;;;;;4932345;29;20430;-55
2023/11/29 03:03:55;;;;;;;23.00;8.20;;;;;;;;;;4933466;29;20051;-56
2023/11/29 03:06:21;;;;;;;21.02;8.70;;;;;;;;;;4932127;29;20508;-54
2023/11/29 03:08:47;;;;;;;22.35;8.48;;;;;;;;;;4934666;29;20043;-55
2023/11/29 03:11:13;;;;;;;21.45;8.02;;;;;;;;;;4933643;29;20051;-56
2023/11/29 03:13:39;;;;;;;20.98;8.68;;;;;;;;;;4934326;29;20035;-57
2023/11/29 03:16:06;;;;;;;23.70;8.80;;;;;;;;;;4927929;29;20036;-55
2023/11/29 03:18:32;;;;;;;19.23;7.97;;;;;;;;;;4933266;29;20043;-55
2023/11/29 03:20:59;;;;;;;23.27;9.05;;;;;;;;;;4927776;29;20051;-56
2023/11/29 03:23:25;;;;;;;20.73;8.73;;;;;;;;;;4935039;29;20039;-56
2023/11/29 03:25:51;;;;;;;21.55;8.90;;;;;;;;;;4934625;29;20051;-56
2023/11/29 03:28:17;;;;;;;21.95;8.70;;;;;;;;;;4933234;29;20039;-56
2023/11/29 03:30:43;;;;;;;21.05;8.27;;;;;;;;;;4934506;29;20058;-56
2023/11/29 03:33:09;;;;;;;23.73;9.05;;;;;;;;;;4929585;29;20487;-54
2023/11/29 03:35:35;;;;;;;20.83;8.38;;;;;;;;;;4930710;29;20039;-56
2023/11/29 03:38:01;;;;;;;21.98;8.38;;;;;;;;;;4934551;29;20035;-55
2023/11/29 03:40:27;;;;;;;25.23;9.50;;;;;;;;;;4930703;29;20043;-56
2023/11/29 03:42:53;;;;;;;22.17;9.20;;;;;;;;;;4929767;29;20082;-56
2023/11/29 03:45:20;;;;;;;24.95;8.32;;;;;;;;;;4933715;29;20055;-56
2023/11/29 03:47:46;;;;;;;22.83;9.02;;;;;;;;;;4926942;29;20028;-54
2023/11/29 03:50:13;;;;;;;24.05;9.25;;;;;;;;;;4932138;29;20047;-57
2023/11/29 03:52:39;;;;;;;22.52;8.23;;;;;;;;;;4935105;29;20051;-55
2023/11/29 03:55:06;;;;;;;22.40;9.13;;;;;;;;;;4933198;29;20055;-54
2023/11/29 03:57:34;;;;;;;24.17;9.00;;;;;;;;;;4926214;29;20480;-56
2023/11/29 04:00:00;;;;;;;23.50;8.57;;;;;;;;;;4933814;29;20039;-54
2023/11/29 04:02:26;;;;;;;22.55;8.73;;;;;;;;;;4934646;29;20509;-56
2023/11/29 04:04:52;;;;;;;24.17;8.63;;;;;;;;;;4934382;29;20038;-54
2023/11/29 04:07:18;;;;;;;25.05;9.55;;;;;;;;;;4928477;29;20062;-56
2023/11/29 04:09:44;;;;;;;24.58;9.27;;;;;;;;;;4932707;29;20035;-54
2023/11/29 04:12:11;;;;;;;21.80;8.15;;;;;;;;;;4931877;29;20492;-56
2023/11/29 04:14:37;;;;;;;24.92;9.38;;;;;;;;;;4933999;29;20044;-56
2023/11/29 04:17:05;;;;;;;22.77;8.38;;;;;;;;;;4931119;29;20050;-56
2023/11/29 04:19:31;;;;;;;25.77;9.18;;;;;;;;;;4934319;29;20031;-56
2023/11/29 04:21:57;;;;;;;23.60;7.82;;;;;;;;;;4933611;29;20035;-55
2023/11/29 04:24:24;;;;;;;23.20;8.98;;;;;;;;;;4930619;29;20055;-55
2023/11/29 04:26:50;;;;;;;25.10;9.23;;;;;;;;;;4927294;29;20051;-56
2023/11/29 04:29:16;;;;;;;23.30;8.63;;;;;;;;;;4933602;29;20055;-55
2023/11/29 04:31:42;;;;;;;26.05;9.38;;;;;;;;;;4932104;29;20042;-55
2023/11/29 04:34:09;;;;;;;22.95;9.13;;;;;;;;;;4929805;29;20099;-56
2023/11/29 04:36:35;;;;;;;22.92;8.98;;;;;;;;;;4929145;29;20039;-57
2023/11/29 04:39:05;;;;;;;24.95;9.93;;;;;;;;;;4931858;29;20048;-56
2023/11/29 04:41:31;;;;;;;26.15;8.88;;;;;;;;;;4926160;29;20125;-56
2023/11/29 04:43:58;;;;;;;27.40;10.00;;;;;;;;;;4948600;29;20044;-55
2023/11/29 04:46:24;;;;;;;29.65;10.32;;;;;;;;;;4931853;29;20582;-56
2023/11/29 04:48:51;;;;;;;25.98;10.30;;;;;;;;;;4930196;29;20039;-57
2023/11/29 04:51:17;;;;;;;28.00;9.80;;;;;;;;;;4933302;29;20055;-56
2023/11/29 04:53:43;;;;;;;25.23;9.70;;;;;;;;;;4931387;29;20040;-56
2023/11/29 04:56:12;;;;;;;26.47;10.50;;;;;;;;;;4932086;29;20060;-56
2023/11/29 04:58:40;;;;;;;22.85;9.25;;;;;;;;;;4932959;29;20596;-55
2023/11/29 05:01:10;;;;;;;24.63;9.30;;;;;;;;;;4933043;29;20439;-56
2023/11/29 05:03:37;;;;;;;23.30;9.13;;;;;;;;;;4933989;29;20058;-54
2023/11/29 05:06:05;;;;;;;22.63;8.95;;;;;;;;;;4927263;29;20036;-54
2023/11/29 05:08:35;;;;;;;25.33;9.65;;;;;;;;;;4930820;29;20035;-55
2023/11/29 05:11:06;;;;;;;25.55;10.27;;;;;;;;;;4930154;29;20048;-56
2023/11/29 05:13:32;;;;;;;26.60;7.90;;;;;;;;;;4933394;29;20036;-55
2023/11/29 05:15:58;;;;;;;26.20;8.52;;;;;;;;;;4931696;29;20058;-56
2023/11/29 05:18:25;;;;;;;29.55;9.07;;;;;;;;;;4930664;29;20060;-53
2023/11/29 05:20:51;;;;;;;22.17;8.95;;;;;;;;;;4927751;29;20133;-56
2023/11/29 05:23:17;;;;;;;20.90;8.65;;;;;;;;;;4932977;29;20040;-56
2023/11/29 05:25:43;;;;;;;20.60;9.40;;;;;;;;;;4933183;29;20035;-55
2023/11/29 05:28:09;;;;;;;20.92;8.23;;;;;;;;;;4925120;29;20035;-56
2023/11/29 05:30:35;;;;;;;21.05;7.65;;;;;;;;;;4931268;29;20415;-55
2023/11/29 05:33:03;;;;;;;18.90;7.45;;;;;;;;;;4932871;29;20050;-56
2023/11/29 05:35:31;;;;;;;25.10;9.35;;;;;;;;;;4932569;29;20574;-55
2023/11/29 05:37:57;;;;;;;21.60;8.90;;;;;;;;;;4931969;29;20032;-56
2023/11/29 05:40:23;;;;;;;18.02;8.02;;;;;;;;;;4922011;29;20400;-54
2023/11/29 05:42:49;;;;;;;17.13;7.25;;;;;;;;;;4932977;29;20522;-55
2023/11/29 05:45:16;;;;;;;16.65;7.38;;;;;;;;;;4927695;29;20054;-55
2023/11/29 05:47:42;;;;;;;15.63;6.30;;;;;;;;;;4932036;29;20058;-54
2023/11/29 05:50:08;;;;;;;17.40;7.28;;;;;;;;;;4932646;29;20051;-55
2023/11/29 05:52:34;;;;;;;17.85;7.40;;;;;;;;;;4928312;29;20031;-55
2023/11/29 05:55:00;;;;;;;18.67;7.93;;;;;;;;;;4932224;29;20060;-56
2023/11/29 05:57:27;;;;;;;18.33;7.95;;;;;;;;;;4931275;29;20059;-55
2023/11/29 06:00:07;;;;;;;17.67;7.80;;;;;;;;;;4932738;29;20446;-55
2023/11/29 06:02:39;;;;;;;15.88;6.32;;;;;;;;;;4927192;29;20510;-56
2023/11/29 06:05:07;;;;;;;17.48;7.18;;;;;;;;;;4932278;29;20039;-55
2023/11/29 06:07:35;;;;;;;14.05;6.28;;;;;;;;;;4931575;29;20179;-56
2023/11/29 06:10:03;;;;;;;24.88;7.22;;;;;;;;;;4932725;29;20048;-56
2023/11/29 06:12:36;;;;;;;17.30;7.45;;;;;;;;;;4926248;29;20435;-55
2023/11/29 06:15:05;;;;;;;15.15;6.82;;;;;;;;;;4931893;29;20044;-55
2023/11/29 06:17:37;;;;;;;14.27;6.60;;;;;;;;;;4931112;29;20052;-55
2023/11/29 06:20:06;;;;;;;14.40;6.70;;;;;;;;;;4932031;29;20384;-54
2023/11/29 06:22:32;;;;;;;22.13;9.27;;;;;;;;;;4929891;29;20043;-55
2023/11/29 06:24:59;;;;;;;17.00;6.80;;;;;;;;;;4931508;29;20495;-54
2023/11/29 06:27:28;;;;;;;14.50;5.97;;;;;;;;;;4931484;29;20047;-55
2023/11/29 06:29:54;;;;;;;15.93;5.55;;;;;;;;;;4931561;29;20515;-55
2023/11/29 06:32:22;;;;;;;14.80;5.15;;;;;;;;;;4931056;29;20055;-57
2023/11/29 06:34:50;;;;;;;15.55;6.30;;;;;;;;;;4931793;29;20511;-54
2023/11/29 06:37:16;;;;;;;14.95;6.15;;;;;;;;;;4924688;29;20059;-55
2023/11/29 06:39:46;;;;;;;12.27;5.05;;;;;;;;;;4929652;29;20042;-55
2023/11/29 06:42:13;;;;;;;15.50;5.00;;;;;;;;;;4930764;29;20040;-56
2023/11/29 06:44:40;;;;;;;11.70;5.25;;;;;;;;;;4930646;29;20042;-56
2023/11/29 06:47:06;;;;;;;11.32;4.60;;;;;;;;;;4929400;29;20040;-55
2023/11/29 06:49:32;;;;;;;11.65;5.50;;;;;;;;;;4928551;29;20059;-55
2023/11/29 06:51:58;;;;;;;9.02;4.15;;;;;;;;;;4928818;29;20042;-54
2023/11/29 06:54:24;;;;;;;12.55;5.30;;;;;;;;;;4924065;29;20048;-56
2023/11/29 06:56:50;;;;;;;11.02;5.13;;;;;;;;;;4929884;29;20047;-56
2023/11/29 06:59:16;;;;;;;9.32;4.80;;;;;;;;;;4932250;29;20051;-56
2023/11/29 07:01:42;;;;;;;10.90;4.47;;;;;;;;;;4931734;29;20052;-56
2023/11/29 07:04:09;;;;;;;11.07;4.45;;;;;;;;;;4931950;29;20043;-55
2023/11/29 07:06:37;;;;;;;10.93;4.90;;;;;;;;;;4930589;29;20027;-54
2023/11/29 07:09:06;;;;;;;11.20;5.05;;;;;;;;;;4929662;29;20400;-55
2023/11/29 07:11:34;;;;;;;9.97;4.77;;;;;;;;;;4931894;29;20476;-54
2023/11/29 07:14:01;;;;;;;8.20;4.53;;;;;;;;;;4931744;29;20499;-56
2023/11/29 07:16:27;;;;;;;15.32;6.32;;;;;;;;;;4930718;29;20059;-56
2023/11/29 07:18:53;;;;;;;10.30;5.60;;;;;;;;;;4931595;29;20032;-56
2023/11/29 07:21:19;;;;;;;10.55;4.72;;;;;;;;;;4931398;29;20048;-56
2023/11/29 07:23:45;;;;;;;14.90;5.88;;;;;;;;;;4931908;29;20396;-55
2023/11/29 07:26:11;;;;;;;14.52;5.38;;;;;;;;;;4931675;29;20042;-55
2023/11/29 07:28:37;;;;;;;8.77;4.60;;;;;;;;;;4931488;29;20408;-57
2023/11/29 07:31:08;;;;;;;8.10;4.03;;;;;;;;;;4931415;29;20040;-56
2023/11/29 07:33:35;;;;;;;7.38;4.18;;;;;;;;;;4931431;29;20067;-55
2023/11/29 07:36:07;;;;;;;9.30;4.38;;;;;;;;;;4928673;29;20050;-55
2023/11/29 07:38:34;;;;;;;11.48;5.25;;;;;;;;;;4931610;29;20043;-55
2023/11/29 07:41:00;;;;;;;11.07;5.00;;;;;;;;;;4931027;29;20051;-55
2023/11/29 07:43:26;;;;;;;9.10;4.68;;;;;;;;;;4932553;29;20051;-54
2023/11/29 07:45:52;;;;;;;11.40;4.22;;;;;;;;;;4934984;29;20058;-54
2023/11/29 07:48:21;;;;;;;10.43;5.05;;;;;;;;;;4934506;29;20059;-54
2023/11/29 07:50:49;;;;;;;8.07;4.63;;;;;;;;;;4934735;29;20039;-55
2023/11/29 07:53:16;;;;;;;7.53;4.35;;;;;;;;;;4935235;29;20062;-55
2023/11/29 07:55:42;;;;;;;7.43;3.78;;;;;;;;;;4934888;29;20097;-54
2023/11/29 07:58:08;;;;;;;9.40;4.70;;;;;;;;;;4934455;29;20051;-54
2023/11/29 08:00:34;;;;;;;7.43;4.07;;;;;;;;;;4934724;29;20036;-55
2023/11/29 08:03:00;;;;;;;6.85;3.95;;;;;;;;;;4935045;29;20034;-54
2023/11/29 08:05:27;;;;;;;10.90;4.32;;;;;;;;;;4934669;29;20031;-56
2023/11/29 08:07:55;;;;;;;6.38;3.85;;;;;;;;;;4934536;29;20031;-56
2023/11/29 08:10:22;;;;;;;9.88;4.53;;;;;;;;;;4933979;29;20051;-55
2023/11/29 08:12:48;;;;;;;7.32;3.80;;;;;;;;;;4935260;29;20042;-54
2023/11/29 08:15:14;;;;;;;9.98;4.68;;;;;;;;;;4933886;29;20051;-55
2023/11/29 08:17:41;;;;;;;9.82;4.35;;;;;;;;;;4933989;29;20495;-56
2023/11/29 08:20:07;;;;;;;9.05;4.45;;;;;;;;;;4933614;29;20043;-54
2023/11/29 08:22:34;;;;;;;7.38;3.83;;;;;;;;;;4934523;29;20109;-57
2023/11/29 08:25:00;;;;;;;7.15;3.75;;;;;;;;;;4934145;29;20529;-56
2023/11/29 08:27:26;;;;;;;9.95;4.60;;;;;;;;;;4931898;29;20045;-56
2023/11/29 08:29:52;;;;;;;8.70;4.57;;;;;;;;;;4933603;29;20372;-55
2023/11/29 08:32:18;;;;;;;12.43;5.63;;;;;;;;;;4933705;29;20040;-55
2023/11/29 08:34:45;;;;;;;10.15;4.30;;;;;;;;;;4933824;29;20039;-54
2023/11/29 08:37:11;;;;;;;9.13;4.35;;;;;;;;;;4932335;29;20047;-56
2023/11/29 08:39:37;;;;;;;9.02;4.03;;;;;;;;;;4933149;29;20522;-54
2023/11/29 08:42:04;;;;;;;7.53;3.92;;;;;;;;;;4929325;29;20052;-56
2023/11/29 08:44:32;;;;;;;9.80;4.65;;;;;;;;;;4933012;29;20040;-54
2023/11/29 08:46:58;;;;;;;7.80;3.72;;;;;;;;;;4931367;29;20059;-54
2023/11/29 08:49:24;;;;;;;7.18;3.83;;;;;;;;;;4933111;29;20044;-55
2023/11/29 08:51:50;;;;;;;9.40;3.90;;;;;;;;;;4931917;29;20416;-54
2023/11/29 08:54:16;;;;;;;10.52;4.22;;;;;;;;;;4931076;29;20047;-56
2023/11/29 08:56:43;;;;;;;7.43;3.92;;;;;;;;;;4932160;29;20039;-56
2023/11/29 08:59:10;;;;;;;10.55;4.50;;;;;;;;;;4932504;29;20416;-56
2023/11/29 09:01:36;;;;;;;10.00;3.67;;;;;;;;;;4932364;29;20039;-54
2023/11/29 09:04:02;;;;;;;6.55;3.65;;;;;;;;;;4933341;29;20058;-55
2023/11/29 09:06:30;;;;;;;7.93;4.32;;;;;;;;;;4931927;29;20039;-55
2023/11/29 09:08:56;;;;;;;7.45;4.00;;;;;;;;;;4931161;29;20146;-54
2023/11/29 09:11:22;;;;;;;7.63;3.80;;;;;;;;;;4931350;29;20455;-54
2023/11/29 09:13:48;;;;;;;6.60;3.60;;;;;;;;;;4932292;29;20043;-54
2023/11/29 09:16:15;;;;;;;7.50;4.07;;;;;;;;;;4931346;29;20043;-56
2023/11/29 09:18:43;;;;;;;6.68;3.88;;;;;;;;;;4931532;29;20043;-55
2023/11/29 09:21:09;;;;;;;8.55;3.53;;;;;;;;;;4931889;29;20048;-56
2023/11/29 09:23:36;;;;;;;6.47;3.80;;;;;;;;;;4932399;29;20027;-54
2023/11/29 09:26:03;;;;;;;8.20;4.22;;;;;;;;;;4931148;29;20061;-55
2023/11/29 09:28:29;;;;;;;7.05;4.03;;;;;;;;;;4931689;29;20048;-54
2023/11/29 09:30:57;;;;;;;6.18;3.78;;;;;;;;;;4927915;29;21684;-56
2023/11/29 09:33:23;;;;;;;7.35;3.65;;;;;;;;;;4931505;29;20511;-54
2023/11/29 09:35:49;;;;;;;5.97;3.42;;;;;;;;;;4931548;29;20051;-55
2023/11/29 09:38:16;;;;;;;7.93;3.60;;;;;;;;;;4930819;29;20039;-55
2023/11/29 09:40:43;;;;;;;7.97;3.60;;;;;;;;;;4932755;29;20043;-56
2023/11/29 09:43:09;;;;;;;8.35;3.53;;;;;;;;;;4931460;29;20059;-55
2023/11/29 09:45:35;;;;;;;5.35;3.13;;;;;;;;;;4931100;29;20063;-53
2023/11/29 09:48:03;;;;;;;6.22;3.30;;;;;;;;;;4931295;29;20399;-54
2023/11/29 09:50:31;;;;;;;7.40;3.15;;;;;;;;;;4930916;29;20859;-53
2023/11/29 09:52:57;;;;;;;6.57;3.00;;;;;;;;;;4931928;29;20038;-55
2023/11/29 09:55:25;;;;;;;6.00;3.45;;;;;;;;;;4928707;29;20058;-55
2023/11/29 09:57:52;;;;;;;6.93;2.78;;;;;;;;;;4927452;29;20403;-53
2023/11/29 10:00:18;;;;;;;4.03;2.55;;;;;;;;;;4930408;29;20039;-54
2023/11/29 10:02:44;;;;;;;6.97;3.70;;;;;;;;;;4932140;29;20047;-55
2023/11/29 10:05:11;;;;;;;8.23;3.45;;;;;;;;;;4930698;29;20040;-54
2023/11/29 10:07:37;;;;;;;5.05;3.15;;;;;;;;;;4930985;29;20035;-55
2023/11/29 10:10:07;;;;;;;6.15;3.30;;;;;;;;;;4929108;29;20063;-55
2023/11/29 10:12:38;;;;;;;5.35;3.50;;;;;;;;;;4932118;29;20031;-56
2023/11/29 10:15:04;;;;;;;5.53;3.20;;;;;;;;;;4932554;29;20530;-54
2023/11/29 10:17:31;;;;;;;4.97;3.15;;;;;;;;;;4930053;29;20051;-54
2023/11/29 10:19:57;;;;;;;6.53;3.20;;;;;;;;;;4932671;29;20446;-55
2023/11/29 10:22:24;;;;;;;5.88;3.20;;;;;;;;;;4932229;29;20051;-55
2023/11/29 10:24:51;;;;;;;6.43;3.05;;;;;;;;;;4932827;29;20052;-54
2023/11/29 10:27:18;;;;;;;4.20;2.60;;;;;;;;;;4930990;29;20059;-55
2023/11/29 10:29:46;;;;;;;5.32;2.80;;;;;;;;;;4931812;29;20143;-56
2023/11/29 10:32:13;;;;;;;4.57;2.65;;;;;;;;;;4929690;29;20032;-54
2023/11/29 10:34:39;;;;;;;5.18;2.72;;;;;;;;;;4931949;29;20043;-55
2023/11/29 10:37:06;;;;;;;4.78;2.65;;;;;;;;;;4931712;29;20031;-57
2023/11/29 10:39:37;;;;;;;5.65;2.42;;;;;;;;;;4931751;29;20039;-55
2023/11/29 10:42:10;;;;;;;3.95;2.67;;;;;;;;;;4931978;29;20035;-55
2023/11/29 10:44:38;;;;;;;5.35;2.47;;;;;;;;;;4932750;29;20411;-55
2023/11/29 10:47:22;;;;;;;5.00;2.65;;;;;;;;;;4930151;29;20040;-55
2023/11/29 10:49:57;;;;;;;3.53;2.25;;;;;;;;;;4931942;29;20046;-55
2023/11/29 10:52:25;;;;;;;4.28;2.20;;;;;;;;;;4927926;29;20058;-55
2023/11/29 10:54:51;;;;;;;4.60;2.00;;;;;;;;;;4932173;29;20047;-55
2023/11/29 10:57:43;;;;;;;6.30;2.47;;;;;;;;;;4930453;29;20043;-55
2023/11/29 11:00:15;;;;;;;4.72;2.40;;;;;;;;;;4930927;29;20051;-55
2023/11/29 11:02:44;;;;;;;3.00;2.00;;;;;;;;;;4931368;29;20039;-55
2023/11/29 11:05:10;;;;;;;3.33;2.33;;;;;;;;;;4930025;29;20051;-55
2023/11/29 11:07:47;;;;;;;4.88;2.10;;;;;;;;;;4924084;29;20052;-56
2023/11/29 11:10:23;;;;;;;4.30;2.40;;;;;;;;;;4930219;29;20514;-56
2023/11/29 11:12:51;;;;;;;9.23;2.55;;;;;;;;;;4931719;29;20050;-56
2023/11/29 11:15:21;;;;;;;4.15;2.85;;;;;;;;;;4931040;29;20038;-55
2023/11/29 11:18:02;;;;;;;4.20;2.60;;;;;;;;;;4930347;29;20052;-56
2023/11/29 11:20:50;;;;;;;8.00;2.55;;;;;;;;;;4927906;29;20058;-54
2023/11/29 11:23:20;;;;;;;4.78;2.80;;;;;;;;;;4932193;29;20131;-54
2023/11/29 11:25:46;;;;;;;6.38;2.63;;;;;;;;;;4933969;29;20059;-56
2023/11/29 11:28:33;;;;;;;3.60;2.60;;;;;;;;;;4933198;29;20062;-56
2023/11/29 11:31:06;;;;;;;3.80;2.50;;;;;;;;;;4933260;29;20055;-54
2023/11/29 11:33:51;;;;;;;4.25;2.80;;;;;;;;;;4934739;29;20431;-56
2023/11/29 11:36:19;;;;;;;8.40;3.72;;;;;;;;;;4933564;29;20055;-55
2023/11/29 11:38:45;;;;;;;5.05;2.85;;;;;;;;;;4933504;29;20035;-55
2023/11/29 11:41:12;;;;;;;5.20;2.85;;;;;;;;;;4933782;29;20063;-55
2023/11/29 11:43:38;;;;;;;8.45;4.15;;;;;;;;;;4934296;29;20040;-54
2023/11/29 11:46:05;;;;;;;4.90;2.67;;;;;;;;;;4933649;29;20047;-56
2023/11/29 11:48:32;;;;;;;5.40;2.65;;;;;;;;;;4933328;29;20030;-56
2023/11/29 11:50:59;;;;;;;5.00;3.35;;;;;;;;;;4933954;29;20115;-56
2023/11/29 11:53:26;;;;;;;5.85;3.03;;;;;;;;;;4933574;29;20050;-55
2023/11/29 11:55:52;;;;;;;4.65;2.45;;;;;;;;;;4933703;29;20396;-55
2023/11/29 11:58:19;;;;;;;6.35;3.00;;;;;;;;;;4933000;29;20075;-55
2023/11/29 12:00:49;;;;;;;3.33;2.65;;;;;;;;;;4933180;29;20043;-57
2023/11/29 12:03:16;;;;;;;4.72;2.58;;;;;;;;;;4933150;29;20048;-55
2023/11/29 12:05:42;;;;;;;3.80;2.00;;;;;;;;;;4933568;29;20036;-56
2023/11/29 12:08:09;;;;;;;2.90;2.28;;;;;;;;;;4932796;29;20048;-57
2023/11/29 12:10:35;;;;;;;7.07;2.80;;;;;;;;;;4932833;29;20058;-56
2023/11/29 12:13:01;;;;;;;3.05;2.00;;;;;;;;;;4934058;29;20061;-55
2023/11/29 12:15:31;;;;;;;4.13;2.00;;;;;;;;;;4933632;29;20415;-55
2023/11/29 12:17:58;;;;;;;;;;;;;;;;;;4934678;29;20039;-55
2023/11/29 12:20:24;;;;;;;4.13;2.58;;;;;;;;;;4934098;29;19925;-56
2023/11/29 12:22:51;;;;;;;2.83;2.00;;;;;;;;;;4934555;29;20051;-55
2023/11/29 12:25:22;;;;;;;4.35;2.38;;;;;;;;;;4933944;29;20055;-56
2023/11/29 12:27:52;;;;;;;3.53;2.15;;;;;;;;;;4933545;29;20058;-55
2023/11/29 12:30:19;;;;;;;5.47;1.83;;;;;;;;;;4931813;29;20062;-55
2023/11/29 12:32:45;;;;;;;4.53;2.70;;;;;;;;;;4932324;29;20054;-56
2023/11/29 12:35:15;;;;;;;2.78;2.00;;;;;;;;;;4930686;29;20387;-56
2023/11/29 12:37:44;;;;;;;3.63;2.28;;;;;;;;;;4932155;29;20063;-55
2023/11/29 12:40:15;;;;;;;7.45;3.65;;;;;;;;;;4934056;29;20411;-57
2023/11/29 12:42:43;;;;;;;3.10;2.45;;;;;;;;;;4931948;29;20043;-56
2023/11/29 12:45:09;;;;;;;3.00;1.90;;;;;;;;;;4930921;29;20050;-55
2023/11/29 12:47:36;;;;;;;3.42;2.33;;;;;;;;;;4932370;29;20761;-55
2023/11/29 12:50:02;;;;;;;4.07;2.25;;;;;;;;;;4933054;29;20054;-56
2023/11/29 12:52:29;;;;;;;3.45;2.15;;;;;;;;;;4931334;29;20031;-55
2023/11/29 12:54:55;;;;;;;5.03;2.10;;;;;;;;;;4932872;29;20036;-56
2023/11/29 12:57:21;;;;;;;2.88;2.00;;;;;;;;;;4931810;29;20047;-56
2023/11/29 12:59:47;;;;;;;2.92;1.83;;;;;;;;;;4932333;29;20032;-56
2023/11/29 13:02:13;;;;;;;4.35;2.40;;;;;;;;;;4932068;29;20051;-55
2023/11/29 13:04:40;;;;;;;5.13;2.05;;;;;;;;;;4932847;29;20048;-55
2023/11/29 13:07:06;;;;;;;3.33;2.22;;;;;;;;;;4929602;29;20051;-56
2023/11/29 13:09:32;;;;;;;4.20;1.70;;;;;;;;;;4930379;29;20051;-56
2023/11/29 13:11:59;;;;;;;4.20;2.08;;;;;;;;;;4929649;29;20036;-55
2023/11/29 13:14:25;;;;;;;3.55;2.10;;;;;;;;;;4930901;29;20503;-56
2023/11/29 13:16:51;;;;;;;4.10;2.20;;;;;;;;;;4925685;29;20047;-55
2023/11/29 13:19:17;;;;;;;6.57;2.58;;;;;;;;;;4931975;29;20040;-56
2023/11/29 13:21:44;;;;;;;4.00;2.40;;;;;;;;;;4932009;29;20053;-56
2023/11/29 13:24:10;;;;;;;4.00;2.35;;;;;;;;;;4931927;29;20181;-56
2023/11/29 13:26:38;;;;;;;4.57;2.60;;;;;;;;;;4931537;29;20054;-54
2023/11/29 13:29:04;;;;;;;4.35;2.50;;;;;;;;;;4931671;29;20043;-53
2023/11/29 13:31:30;;;;;;;3.42;2.10;;;;;;;;;;4929162;29;20059;-55
2023/11/29 13:33:57;;;;;;;5.03;2.42;;;;;;;;;;4931584;29;20055;-55
2023/11/29 13:36:23;;;;;;;5.15;2.65;;;;;;;;;;4931512;29;20044;-55
2023/11/29 13:38:50;;;;;;;7.43;2.92;;;;;;;;;;4931864;29;20118;-55
2023/11/29 13:41:17;;;;;;;6.07;2.65;;;;;;;;;;4931469;29;20043;-55
2023/11/29 13:43:43;;;;;;;6.25;2.63;;;;;;;;;;4931561;29;20522;-54
2023/11/29 13:46:09;;;;;;;5.47;3.42;;;;;;;;;;4931718;29;20039;-55
2023/11/29 13:48:35;;;;;;;11.23;6.57;;;;;;;;;;4930322;29;20427;-57
2023/11/29 13:51:02;;;;;;;8.73;5.57;;;;;;;;;;4931480;29;20533;-55
2023/11/29 13:53:28;;;;;;;9.25;5.28;;;;;;;;;;4931689;29;20047;-55
2023/11/29 13:55:54;;;;;;;8.40;4.35;;;;;;;;;;4931858;29;20145;-55
2023/11/29 13:58:20;;;;;;;8.75;4.22;;;;;;;;;;4930394;29;20063;-56
2023/11/29 14:00:47;;;;;;;8.90;3.80;;;;;;;;;;4931268;29;20054;-54
2023/11/29 14:03:13;;;;;;;5.55;3.40;;;;;;;;;;4931772;29;20070;-55
2023/11/29 14:05:39;;;;;;;7.50;3.95;;;;;;;;;;4931648;29;20052;-57
2023/11/29 14:08:05;;;;;;;5.78;2.88;;;;;;;;;;4929619;29;20070;-54
2023/11/29 14:10:31;;;;;;;6.78;2.60;;;;;;;;;;4930784;29;20694;-55
2023/11/29 14:12:57;;;;;;;8.73;4.35;;;;;;;;;;4932118;29;20048;-55
2023/11/29 14:15:23;;;;;;;6.00;3.00;;;;;;;;;;4930897;29;20023;-54
2023/11/29 14:17:50;;;;;;;6.75;3.30;;;;;;;;;;4930058;29;20055;-54
2023/11/29 14:20:17;;;;;;;5.75;2.90;;;;;;;;;;4931809;29;20044;-54
2023/11/29 14:22:44;;;;;;;5.60;2.65;;;;;;;;;;4931153;29;20055;-57
2023/11/29 14:25:11;;;;;;;8.32;3.08;;;;;;;;;;4930287;29;20044;-56
2023/11/29 14:27:38;;;;;;;12.10;6.68;;;;;;;;;;4931253;29;20047;-56
2023/11/29 14:30:05;;;;;;;8.00;4.60;;;;;;;;;;4930842;29;20051;-56
2023/11/29 14:32:31;;;;;;;5.00;2.83;;;;;;;;;;4924014;29;20399;-56
2023/11/29 14:34:57;;;;;;;4.95;2.83;;;;;;;;;;4931168;29;20043;-57